createdAt,value
2023-04-26T00:02:15.925Z,21.97
2023-04-26T00:04:42.464Z,21.96
2023-04-26T00:07:09.161Z,21.96
2023-04-26T00:09:35.768Z,21.97
2023-04-26T00:12:02.825Z,21.97
2023-04-26T00:14:29.385Z,21.97
2023-04-26T00:16:56.395Z,21.98
2023-04-26T00:19:24.083Z,21.98
2023-04-26T00:21:50.567Z,21.98
2023-04-26T00:24:17.043Z,21.99
2023-04-26T00:26:43.865Z,21.98
2023-04-26T00:29:10.350Z,21.98
2023-04-26T00:31:36.852Z,21.99
2023-04-26T00:34:03.405Z,21.99
2023-04-26T00:36:30.006Z,21.99
2023-04-26T00:38:56.575Z,21.99
2023-04-26T00:41:24.248Z,21.99
2023-04-26T00:43:50.819Z,21.99
2023-04-26T00:46:17.636Z,22.00
2023-04-26T00:48:44.511Z,21.99
2023-04-26T00:51:12.488Z,21.99
2023-04-26T00:53:39.425Z,22.00
2023-04-26T00:56:16.899Z,22.01
2023-04-26T00:58:46.252Z,21.99
2023-04-26T01:01:13.434Z,22.00
2023-04-26T01:03:41.515Z,22.00
2023-04-26T01:06:08.283Z,22.00
2023-04-26T01:08:36.901Z,22.00
2023-04-26T01:11:04.330Z,22.01
2023-04-26T01:13:32.660Z,22.02
2023-04-26T01:16:00.009Z,22.01
2023-04-26T01:18:26.847Z,22.00
2023-04-26T01:20:53.959Z,22.01
2023-04-26T01:23:20.431Z,22.02
2023-04-26T01:25:47.973Z,22.01
2023-04-26T01:28:14.469Z,22.01
2023-04-26T01:30:41.086Z,22.01
2023-04-26T01:33:07.637Z,22.01
2023-04-26T01:35:34.179Z,22.01
2023-04-26T01:38:01.908Z,22.02
2023-04-26T01:40:28.330Z,22.02
2023-04-26T01:42:54.776Z,22.02
2023-04-26T01:45:21.205Z,22.02
2023-04-26T01:48:06.538Z,22.01
2023-04-26T01:50:33.126Z,22.00
2023-04-26T01:52:59.564Z,22.02
2023-04-26T01:55:26.078Z,22.01
2023-04-26T01:57:52.519Z,22.01
2023-04-26T02:00:19.321Z,22.01
2023-04-26T02:02:49.103Z,22.02
2023-04-26T02:05:15.684Z,22.01
2023-04-26T02:07:42.198Z,22.01
2023-04-26T02:10:09.096Z,22.00
2023-04-26T02:12:35.832Z,22.01
2023-04-26T02:15:02.506Z,22.01
2023-04-26T02:17:29.258Z,22.01
2023-04-26T02:19:56.692Z,22.01
2023-04-26T02:22:25.356Z,22.02
2023-04-26T02:24:52.818Z,22.02
2023-04-26T02:27:19.962Z,22.02
2023-04-26T02:29:46.787Z,22.01
2023-04-26T02:32:14.318Z,22.02
2023-04-26T02:34:41.332Z,22.01
2023-04-26T02:37:07.972Z,22.02
2023-04-26T02:39:34.524Z,22.00
2023-04-26T02:42:01.178Z,22.01
2023-04-26T02:44:31.126Z,22.02
2023-04-26T02:46:58.079Z,22.00
2023-04-26T02:49:24.836Z,22.00
2023-04-26T02:51:51.846Z,22.00
2023-04-26T02:54:18.882Z,22.00
2023-04-26T02:56:45.495Z,22.00
2023-04-26T02:59:11.973Z,22.00
2023-04-26T03:01:38.644Z,22.00
2023-04-26T03:04:05.718Z,22.01
2023-04-26T03:06:34.155Z,22.01
2023-04-26T03:09:00.930Z,22.00
2023-04-26T03:11:27.614Z,22.00
2023-04-26T03:13:54.115Z,21.99
2023-04-26T03:16:21.435Z,21.99
2023-04-26T03:18:48.401Z,21.99
2023-04-26T03:21:14.972Z,22.00
2023-04-26T03:23:41.811Z,22.00
2023-04-26T03:26:09.079Z,21.99
2023-04-26T03:28:35.782Z,21.99
2023-04-26T03:31:02.990Z,21.99
2023-04-26T03:33:31.575Z,21.99
2023-04-26T03:35:58.070Z,21.99
2023-04-26T03:38:25.035Z,21.98
2023-04-26T03:40:52.038Z,21.98
2023-04-26T03:43:18.490Z,21.97
2023-04-26T03:45:48.762Z,21.98
2023-04-26T03:48:16.503Z,21.98
2023-04-26T03:50:44.886Z,21.97
2023-04-26T03:53:11.940Z,21.97
2023-04-26T03:55:38.571Z,21.97
2023-04-26T03:58:07.886Z,21.97
2023-04-26T04:00:37.354Z,21.98
2023-04-26T04:03:04.149Z,21.97
2023-04-26T04:05:31.497Z,21.97
2023-04-26T04:07:59.366Z,21.97
2023-04-26T04:10:26.039Z,21.96
2023-04-26T04:12:53.463Z,21.97
2023-04-26T04:15:21.100Z,21.96
2023-04-26T04:17:48.617Z,21.96
2023-04-26T04:20:15.296Z,21.96
2023-04-26T04:22:42.557Z,21.96
2023-04-26T04:25:13.761Z,21.96
2023-04-26T04:27:42.643Z,21.95
2023-04-26T04:30:10.679Z,21.95
2023-04-26T04:32:37.969Z,21.95
2023-04-26T04:35:05.783Z,21.94
2023-04-26T04:37:33.541Z,21.94
2023-04-26T04:40:00.806Z,21.94
2023-04-26T04:42:28.167Z,21.95
2023-04-26T04:44:57.544Z,21.96
2023-04-26T04:47:25.784Z,21.95
2023-04-26T04:49:53.795Z,21.95
2023-04-26T04:52:23.489Z,21.95
2023-04-26T04:54:49.992Z,21.95
2023-04-26T04:57:16.937Z,21.94
2023-04-26T04:59:45.325Z,21.95
2023-04-26T05:02:11.980Z,21.94
2023-04-26T05:04:38.997Z,21.93
2023-04-26T05:07:06.889Z,21.94
2023-04-26T05:09:34.786Z,21.95
2023-04-26T05:12:01.521Z,21.94
2023-04-26T05:14:29.950Z,21.94
2023-04-26T05:16:56.635Z,21.94
2023-04-26T05:19:23.245Z,21.95
2023-04-26T05:21:49.821Z,21.95
2023-04-26T05:24:17.025Z,21.95
2023-04-26T05:26:43.683Z,21.95
2023-04-26T05:29:10.192Z,21.95
2023-04-26T05:31:57.695Z,21.94
2023-04-26T05:34:51.114Z,21.93
2023-04-26T05:37:17.623Z,21.94
2023-04-26T05:39:44.478Z,21.95
2023-04-26T05:42:11.096Z,21.94
2023-04-26T05:44:38.599Z,21.94
2023-04-26T05:47:05.286Z,21.95
2023-04-26T05:49:31.877Z,21.94
2023-04-26T05:52:00.798Z,21.95
2023-04-26T05:54:27.999Z,21.95
2023-04-26T05:56:55.815Z,21.95
2023-04-26T05:59:24.658Z,21.95
2023-04-26T06:01:51.704Z,21.95
2023-04-26T06:04:18.658Z,21.95
2023-04-26T06:07:00.955Z,21.95
2023-04-26T06:09:27.680Z,21.95
2023-04-26T06:11:54.351Z,21.95
2023-04-26T06:14:29.979Z,21.95
2023-04-26T06:16:58.526Z,21.94
2023-04-26T06:19:27.004Z,21.94
2023-04-26T06:21:55.342Z,21.95
2023-04-26T06:24:23.615Z,21.95
2023-04-26T06:26:50.119Z,21.94
2023-04-26T06:29:17.031Z,21.94
2023-04-26T06:31:43.623Z,21.94
2023-04-26T06:34:10.166Z,21.94
2023-04-26T06:36:36.905Z,21.94
2023-04-26T06:39:03.941Z,21.94
2023-04-26T06:41:31.196Z,21.94
2023-04-26T06:43:57.770Z,21.94
2023-04-26T06:46:30.613Z,21.94
2023-04-26T06:48:57.099Z,21.93
2023-04-26T06:51:24.875Z,21.93
2023-04-26T06:53:52.602Z,21.93
2023-04-26T06:56:19.336Z,21.93
2023-04-26T06:59:08.015Z,21.94
2023-04-26T07:01:35.502Z,21.91
2023-04-26T07:04:03.822Z,21.91
2023-04-26T07:06:31.438Z,21.92
2023-04-26T07:09:02.788Z,21.91
2023-04-26T07:11:29.652Z,21.92
2023-04-26T07:13:56.861Z,21.91
2023-04-26T07:16:24.168Z,21.91
2023-04-26T07:18:52.697Z,21.90
2023-04-26T07:21:19.223Z,21.91
2023-04-26T07:23:46.008Z,21.91
2023-04-26T07:26:12.520Z,21.91
2023-04-26T07:28:39.002Z,21.91
2023-04-26T07:31:07.836Z,21.89
2023-04-26T07:33:35.648Z,21.90
2023-04-26T07:36:02.279Z,21.89
2023-04-26T07:38:28.775Z,21.89
2023-04-26T07:40:55.435Z,21.90
2023-04-26T07:43:23.200Z,21.91
2023-04-26T07:45:49.737Z,21.88
2023-04-26T07:48:17.020Z,21.90
2023-04-26T07:50:43.597Z,21.88
2023-04-26T07:53:10.312Z,21.88
2023-04-26T07:55:37.591Z,21.88
2023-04-26T07:58:04.528Z,21.88
2023-04-26T08:00:31.068Z,21.88
2023-04-26T08:02:57.925Z,21.89
2023-04-26T08:05:24.922Z,21.88
2023-04-26T08:07:51.643Z,21.88
2023-04-26T08:10:18.233Z,21.87
2023-04-26T08:12:44.841Z,21.88
2023-04-26T08:15:12.068Z,21.88
2023-04-26T08:17:38.735Z,21.87
2023-04-26T08:20:06.096Z,21.87
2023-04-26T08:22:32.612Z,21.87
2023-04-26T08:24:59.089Z,21.87
2023-04-26T08:27:26.048Z,21.87
2023-04-26T08:29:52.503Z,21.88
2023-04-26T08:32:19.065Z,21.87
2023-04-26T08:34:45.588Z,21.87
2023-04-26T08:37:13.939Z,21.87
2023-04-26T08:39:41.790Z,21.88
2023-04-26T08:42:16.687Z,21.88
2023-04-26T08:44:44.818Z,21.87
2023-04-26T08:47:18.633Z,21.88
2023-04-26T08:49:59.672Z,21.89
2023-04-26T08:52:32.079Z,21.88
2023-04-26T08:55:00.347Z,21.86
2023-04-26T08:57:27.213Z,21.87
2023-04-26T08:59:56.266Z,21.87
2023-04-26T09:02:23.917Z,21.87
2023-04-26T09:04:51.450Z,21.86
2023-04-26T09:07:26.393Z,21.87
2023-04-26T09:09:54.878Z,21.86
2023-04-26T09:12:21.446Z,21.85
2023-04-26T09:14:48.337Z,21.86
2023-04-26T09:17:37.971Z,21.86
2023-04-26T09:20:27.713Z,21.86
2023-04-26T09:23:17.016Z,21.84
2023-04-26T09:25:43.616Z,21.82
2023-04-26T09:28:22.395Z,21.84
2023-04-26T09:30:49.215Z,21.83
2023-04-26T09:33:15.941Z,21.83
2023-04-26T09:35:44.108Z,21.84
2023-04-26T09:38:13.968Z,21.84
2023-04-26T09:40:46.138Z,21.84
2023-04-26T09:43:15.923Z,21.85
2023-04-26T09:45:49.392Z,21.85
2023-04-26T09:48:23.187Z,21.85
2023-04-26T09:50:54.815Z,21.84
2023-04-26T09:53:37.135Z,21.85
2023-04-26T09:56:14.892Z,21.84
2023-04-26T09:58:47.759Z,21.85
2023-04-26T10:01:18.841Z,21.84
2023-04-26T10:03:47.228Z,21.84
2023-04-26T10:06:14.204Z,21.85
2023-04-26T10:08:40.976Z,21.84
2023-04-26T10:11:07.960Z,21.85
2023-04-26T10:13:35.095Z,21.85
2023-04-26T10:16:02.377Z,21.85
2023-04-26T10:18:30.431Z,21.84
2023-04-26T10:21:05.444Z,21.85
2023-04-26T10:23:33.196Z,21.80
2023-04-26T10:25:59.750Z,21.80
2023-04-26T10:28:44.330Z,21.81
2023-04-26T10:31:11.745Z,21.80
2023-04-26T10:33:38.395Z,21.80
2023-04-26T10:36:08.852Z,21.80
2023-04-26T10:38:37.615Z,21.81
2023-04-26T10:41:30.215Z,21.82
2023-04-26T10:43:59.698Z,21.80
2023-04-26T10:46:43.209Z,21.81
2023-04-26T10:49:14.929Z,21.80
2023-04-26T10:51:41.888Z,21.80
2023-04-26T10:54:09.160Z,21.81
2023-04-26T10:56:38.616Z,21.82
2023-04-26T11:01:42.215Z,21.83
2023-04-26T11:04:10.416Z,21.84
2023-04-26T11:06:54.286Z,21.86
2023-04-26T11:09:34.803Z,21.85
2023-04-26T11:12:01.473Z,21.84
2023-04-26T11:14:28.402Z,21.86
2023-04-26T11:16:54.935Z,21.87
2023-04-26T11:19:21.418Z,21.87
2023-04-26T11:21:47.919Z,21.88
2023-04-26T11:24:17.440Z,21.89
2023-04-26T11:26:51.270Z,21.91
2023-04-26T11:29:21.373Z,21.90
2023-04-26T11:31:55.025Z,21.92
2023-04-26T11:34:41.938Z,21.91
2023-04-26T11:37:08.480Z,21.91
2023-04-26T11:39:36.847Z,21.92
2023-04-26T11:42:09.961Z,21.94
2023-04-26T11:44:37.929Z,21.92
2023-04-26T11:47:06.646Z,21.94
2023-04-26T11:49:37.532Z,21.94
2023-04-26T11:52:05.161Z,21.95
2023-04-26T11:54:34.165Z,21.95
2023-04-26T11:57:01.040Z,21.96
2023-04-26T11:59:31.724Z,21.95
2023-04-26T12:01:58.847Z,21.96
2023-04-26T12:04:30.436Z,21.97
2023-04-26T12:06:58.166Z,21.97
2023-04-26T12:09:27.963Z,21.98
2023-04-26T12:12:16.797Z,21.97
2023-04-26T12:14:43.386Z,21.98
2023-04-26T12:17:10.492Z,21.97
2023-04-26T12:19:37.992Z,21.98
2023-04-26T12:22:06.037Z,21.98
2023-04-26T12:24:34.624Z,21.99
2023-04-26T12:27:02.923Z,21.98
2023-04-26T12:29:30.810Z,21.96
2023-04-26T12:31:58.906Z,21.97
2023-04-26T12:34:25.708Z,21.96
2023-04-26T12:36:52.249Z,21.97
2023-04-26T12:39:18.873Z,21.97
2023-04-26T12:41:46.304Z,21.96
2023-04-26T12:44:14.359Z,21.96
2023-04-26T12:46:41.134Z,21.96
2023-04-26T12:49:07.858Z,21.95
2023-04-26T12:51:34.654Z,21.96
2023-04-26T12:54:01.183Z,21.95
2023-04-26T12:56:29.660Z,21.96
2023-04-26T12:58:56.169Z,21.95
2023-04-26T13:01:22.760Z,21.95
2023-04-26T13:03:49.513Z,21.94
2023-04-26T13:06:16.726Z,21.94
2023-04-26T13:08:43.327Z,21.95
2023-04-26T13:11:09.926Z,21.94
2023-04-26T13:13:43.910Z,21.93
2023-04-26T13:16:12.554Z,21.93
2023-04-26T13:18:39.640Z,21.92
2023-04-26T13:21:06.339Z,21.92
2023-04-26T13:23:32.897Z,21.92
2023-04-26T13:25:59.364Z,21.92
2023-04-26T13:28:25.915Z,21.92
2023-04-26T13:30:52.800Z,21.91
2023-04-26T13:33:21.273Z,21.91
2023-04-26T13:35:48.208Z,21.91
2023-04-26T13:38:16.035Z,21.91
2023-04-26T13:40:43.225Z,21.91
2023-04-26T13:43:09.818Z,21.92
2023-04-26T13:45:36.447Z,21.92
2023-04-26T13:48:02.994Z,21.92
2023-04-26T13:50:29.770Z,21.92
2023-04-26T13:52:56.770Z,21.92
2023-04-26T13:55:23.526Z,21.93
2023-04-26T13:57:49.973Z,21.94
2023-04-26T14:00:17.056Z,21.93
2023-04-26T14:02:46.103Z,21.94
2023-04-26T14:05:13.116Z,21.95
2023-04-26T14:07:40.877Z,21.94
2023-04-26T14:10:08.002Z,21.95
2023-04-26T14:12:35.010Z,21.95
2023-04-26T14:15:04.278Z,21.94
2023-04-26T14:17:32.386Z,21.95
2023-04-26T14:19:59.093Z,21.95
2023-04-26T14:22:27.306Z,21.96
2023-04-26T14:24:53.931Z,21.97
2023-04-26T14:27:20.927Z,21.97
2023-04-26T14:29:47.647Z,21.97
2023-04-26T14:32:14.220Z,21.97
2023-04-26T14:34:40.893Z,21.98
2023-04-26T14:37:07.599Z,21.98
2023-04-26T14:39:34.389Z,21.99
2023-04-26T14:42:01.653Z,21.99
2023-04-26T14:44:28.808Z,21.99
2023-04-26T14:46:55.598Z,21.99
2023-04-26T14:49:22.420Z,21.98
2023-04-26T14:51:51.261Z,21.98
2023-04-26T14:54:19.216Z,21.98
2023-04-26T14:56:47.085Z,21.99
2023-04-26T14:59:13.667Z,21.98
2023-04-26T15:01:40.343Z,21.97
2023-04-26T15:04:07.182Z,21.97
2023-04-26T15:06:34.327Z,21.97
2023-04-26T15:09:01.330Z,21.97
2023-04-26T15:11:27.818Z,21.97
2023-04-26T15:13:54.302Z,21.97
2023-04-26T15:16:20.869Z,21.96
2023-04-26T15:18:47.506Z,21.98
2023-04-26T15:21:17.650Z,21.98
2023-04-26T15:23:44.138Z,21.97
2023-04-26T15:26:10.671Z,21.96
2023-04-26T15:28:37.261Z,21.97
2023-04-26T15:31:05.369Z,21.96
2023-04-26T15:33:32.446Z,21.96
2023-04-26T15:35:59.145Z,21.95
2023-04-26T15:38:25.997Z,21.95
2023-04-26T15:40:53.659Z,21.95
2023-04-26T15:43:20.485Z,21.94
2023-04-26T15:45:47.237Z,21.94
2023-04-26T15:48:13.874Z,21.95
2023-04-26T15:50:40.747Z,21.95
2023-04-26T15:53:07.310Z,21.94
2023-04-26T15:55:33.811Z,21.95
2023-04-26T15:58:00.463Z,21.93
2023-04-26T16:00:28.349Z,21.93
2023-04-26T16:02:55.151Z,21.93
2023-04-26T16:05:21.796Z,21.94
2023-04-26T16:07:48.410Z,21.93
2023-04-26T16:10:14.869Z,21.93
2023-04-26T16:12:42.833Z,21.93
2023-04-26T16:15:10.410Z,21.93
2023-04-26T16:17:37.695Z,21.92
2023-04-26T16:20:06.775Z,21.92
2023-04-26T16:22:34.402Z,21.92
2023-04-26T16:25:06.731Z,21.91
2023-04-26T16:27:33.618Z,21.90
2023-04-26T16:30:00.204Z,21.90
2023-04-26T16:32:26.920Z,21.89
2023-04-26T16:34:53.577Z,21.91
2023-04-26T16:37:20.104Z,21.90
2023-04-26T16:39:46.660Z,21.90
2023-04-26T16:42:13.192Z,21.89
2023-04-26T16:44:40.767Z,21.91
2023-04-26T16:47:07.268Z,21.91
2023-04-26T16:49:34.218Z,21.89
2023-04-26T16:52:01.179Z,21.90
2023-04-26T16:54:28.135Z,21.88
2023-04-26T16:56:54.828Z,21.90
2023-04-26T16:59:21.433Z,21.88
2023-04-26T17:01:48.052Z,21.89
2023-04-26T17:04:14.782Z,21.89
2023-04-26T17:06:41.488Z,21.89
2023-04-26T17:09:08.804Z,21.89
2023-04-26T17:11:37.285Z,21.89
2023-04-26T17:14:04.539Z,21.90
2023-04-26T17:16:31.648Z,21.89
2023-04-26T17:18:58.533Z,21.90
2023-04-26T17:21:25.563Z,21.88
2023-04-26T17:23:52.450Z,21.88
2023-04-26T17:26:19.028Z,21.87
2023-04-26T17:28:45.800Z,21.88
2023-04-26T17:31:12.359Z,21.88
2023-04-26T17:33:38.947Z,21.87
2023-04-26T17:36:06.237Z,21.87
2023-04-26T17:38:32.819Z,21.87
2023-04-26T17:40:59.606Z,21.86
2023-04-26T17:43:26.153Z,21.87
2023-04-26T17:45:52.956Z,21.86
2023-04-26T17:48:19.656Z,21.85
2023-04-26T17:50:46.292Z,21.86
2023-04-26T17:53:12.943Z,21.86
2023-04-26T17:55:39.413Z,21.86
2023-04-26T17:58:06.332Z,21.85
2023-04-26T18:00:32.927Z,21.85
2023-04-26T18:03:02.776Z,21.86
2023-04-26T18:05:30.111Z,21.86
2023-04-26T18:07:56.775Z,21.86
2023-04-26T18:10:23.414Z,21.86
2023-04-26T18:12:50.075Z,21.87
2023-04-26T18:15:16.572Z,21.87
2023-04-26T18:17:43.609Z,21.87
2023-04-26T18:20:13.088Z,21.88
2023-04-26T18:22:40.062Z,21.87
2023-04-26T18:25:07.168Z,21.87
2023-04-26T18:27:33.789Z,21.88
2023-04-26T18:30:00.712Z,21.89
2023-04-26T18:32:27.222Z,21.89
2023-04-26T18:34:53.889Z,21.91
2023-04-26T18:37:20.451Z,21.90
2023-04-26T18:39:47.052Z,21.91
2023-04-26T18:42:13.616Z,21.90
2023-04-26T18:44:40.080Z,21.90
2023-04-26T18:47:06.602Z,21.91
2023-04-26T18:49:33.115Z,21.91
2023-04-26T18:51:59.920Z,21.91
2023-04-26T18:54:26.972Z,21.91
2023-04-26T18:56:54.436Z,21.90
2023-04-26T18:59:21.497Z,21.92
2023-04-26T19:01:49.353Z,21.91
2023-04-26T19:04:16.285Z,21.91
2023-04-26T19:06:42.881Z,21.92
2023-04-26T19:09:13.736Z,21.90
2023-04-26T19:11:40.491Z,21.90
2023-04-26T19:14:07.283Z,21.90
2023-04-26T19:16:35.156Z,21.89
2023-04-26T19:19:01.897Z,21.90
2023-04-26T19:21:28.389Z,21.89
2023-04-26T19:23:55.059Z,21.90
2023-04-26T19:26:21.612Z,21.89
2023-04-26T19:28:48.234Z,21.88
2023-04-26T19:31:15.065Z,21.89
2023-04-26T19:33:41.699Z,21.89
2023-04-26T19:36:09.316Z,21.89
2023-04-26T19:38:35.976Z,21.88
2023-04-26T19:41:02.740Z,21.88
2023-04-26T19:43:29.284Z,21.88
2023-04-26T19:45:55.899Z,21.88
2023-04-26T19:48:22.773Z,21.88
2023-04-26T19:50:49.274Z,21.87
2023-04-26T19:53:15.805Z,21.87
2023-04-26T19:55:42.601Z,21.88
2023-04-26T19:58:10.575Z,21.87
2023-04-26T20:00:38.577Z,21.88
2023-04-26T20:03:05.748Z,21.87
2023-04-26T20:05:33.684Z,21.88
2023-04-26T20:08:00.760Z,21.87
2023-04-26T20:10:30.961Z,21.87
2023-04-26T20:12:57.935Z,21.87
2023-04-26T20:15:24.542Z,21.86
2023-04-26T20:17:51.288Z,21.87
2023-04-26T20:20:17.835Z,21.87
2023-04-26T20:22:44.544Z,21.86
2023-04-26T20:25:11.187Z,21.87
2023-04-26T20:27:38.081Z,21.87
2023-04-26T20:30:05.239Z,21.88
2023-04-26T20:32:31.823Z,21.87
2023-04-26T20:34:58.478Z,21.86
2023-04-26T20:37:24.924Z,21.87
2023-04-26T20:39:51.434Z,21.85
2023-04-26T20:42:17.933Z,21.86
2023-04-26T20:44:44.482Z,21.85
2023-04-26T20:47:10.985Z,21.85
2023-04-26T20:49:37.528Z,21.85
2023-04-26T20:52:04.402Z,21.84
2023-04-26T20:54:31.799Z,21.85
2023-04-26T20:56:58.532Z,21.85
2023-04-26T20:59:25.901Z,21.84
2023-04-26T21:01:53.544Z,21.85
2023-04-26T21:04:20.411Z,21.85
2023-04-26T21:06:47.323Z,21.85
2023-04-26T21:09:13.857Z,21.85
2023-04-26T21:11:40.532Z,21.84
2023-04-26T21:14:07.191Z,21.85
2023-04-26T21:16:33.691Z,21.84
2023-04-26T21:19:00.286Z,21.84
2023-04-26T21:21:28.626Z,21.85
2023-04-26T21:23:55.200Z,21.84
2023-04-26T21:26:21.860Z,21.85
2023-04-26T21:28:48.628Z,21.84
2023-04-26T21:31:15.167Z,21.84
2023-04-26T21:33:41.724Z,21.84
2023-04-26T21:36:08.408Z,21.84
2023-04-26T21:38:34.918Z,21.83
2023-04-26T21:41:01.432Z,21.83
2023-04-26T21:43:27.903Z,21.83
2023-04-26T21:45:58.458Z,21.84
2023-04-26T21:48:26.171Z,21.83
2023-04-26T21:50:52.827Z,21.83
2023-04-26T21:53:19.357Z,21.84
2023-04-26T21:55:52.557Z,21.83
2023-04-26T21:58:20.078Z,21.83
2023-04-26T22:00:46.773Z,21.82
2023-04-26T22:03:14.522Z,21.83
2023-04-26T22:05:41.185Z,21.82
2023-04-26T22:08:07.715Z,21.83
2023-04-26T22:10:34.663Z,21.84
2023-04-26T22:13:01.194Z,21.83
2023-04-26T22:15:28.252Z,21.83
2023-04-26T22:17:54.751Z,21.83
2023-04-26T22:20:21.717Z,21.83
2023-04-26T22:22:48.327Z,21.83
2023-04-26T22:25:14.840Z,21.83
2023-04-26T22:27:41.332Z,21.84
2023-04-26T22:30:22.930Z,21.84
2023-04-26T22:32:54.204Z,21.82
2023-04-26T22:35:21.647Z,21.84
2023-04-26T22:37:48.127Z,21.83
2023-04-26T22:40:15.527Z,21.84
2023-04-26T22:42:42.782Z,21.83
2023-04-26T22:45:10.738Z,21.83
2023-04-26T22:47:37.531Z,21.84
2023-04-26T22:50:04.976Z,21.83
2023-04-26T22:52:32.288Z,21.83
2023-04-26T22:54:59.966Z,21.83
2023-04-26T22:57:26.986Z,21.84
2023-04-26T22:59:53.423Z,21.84
2023-04-26T23:02:20.847Z,21.84
2023-04-26T23:04:47.747Z,21.85
2023-04-26T23:07:14.321Z,21.84
2023-04-26T23:09:41.202Z,21.85
2023-04-26T23:12:07.818Z,21.85
2023-04-26T23:14:35.046Z,21.86
2023-04-26T23:17:02.623Z,21.84
2023-04-26T23:19:29.311Z,21.85
2023-04-26T23:21:55.906Z,21.86
2023-04-26T23:24:22.431Z,21.87
2023-04-26T23:26:48.959Z,21.86
2023-04-26T23:29:15.613Z,21.87
2023-04-26T23:31:42.424Z,21.87
2023-04-26T23:34:09.070Z,21.88
2023-04-26T23:36:35.632Z,21.88
2023-04-26T23:39:02.172Z,21.87
2023-04-26T23:41:28.691Z,21.88
2023-04-26T23:43:55.359Z,21.88
2023-04-26T23:46:21.917Z,21.89
2023-04-26T23:48:48.377Z,21.89
2023-04-26T23:51:14.864Z,21.88
2023-04-26T23:53:41.307Z,21.89
2023-04-26T23:56:07.793Z,21.89
2023-04-26T23:58:34.305Z,21.88
